createdAt,value
2024-02-21T00:02:06.244Z,100291.63
2024-02-21T00:04:33.734Z,100296.63
2024-02-21T00:07:00.886Z,100293.03
2024-02-21T00:09:30.989Z,100294.78
2024-02-21T00:11:59.903Z,100304.72
2024-02-21T00:14:26.880Z,100310.19
2024-02-21T00:16:53.957Z,100294.44
2024-02-21T00:19:22.102Z,100289.66
2024-02-21T00:21:49.327Z,100277.38
2024-02-21T00:24:18.336Z,100282.69
2024-02-21T00:26:45.668Z,100276.47
2024-02-21T00:29:12.860Z,100277.44
2024-02-21T00:31:40.158Z,100283.00
2024-02-21T00:34:10.510Z,100282.09
2024-02-21T00:36:40.794Z,100275.00
2024-02-21T00:39:09.856Z,100270.69
2024-02-21T00:41:36.825Z,100262.03
2024-02-21T00:44:03.950Z,100262.75
2024-02-21T00:46:31.311Z,100269.72
2024-02-21T00:48:58.180Z,100260.28
2024-02-21T00:51:27.122Z,100263.75
2024-02-21T00:53:56.211Z,100266.25
2024-02-21T00:56:23.681Z,100255.78
2024-02-21T00:58:53.582Z,100263.72
2024-02-21T01:01:25.051Z,100250.63
2024-02-21T01:03:54.429Z,100247.16
2024-02-21T01:06:22.057Z,100244.56
2024-02-21T01:08:49.321Z,100235.81
2024-02-21T01:11:16.947Z,100232.38
2024-02-21T01:13:44.238Z,100237.63
2024-02-21T01:16:11.547Z,100235.91
2024-02-21T01:18:40.908Z,100234.19
2024-02-21T01:21:09.089Z,100223.75
2024-02-21T01:23:38.805Z,100222.91
2024-02-21T01:26:06.034Z,100225.53
2024-02-21T01:28:37.021Z,100215.97
2024-02-21T01:31:04.894Z,100221.13
2024-02-21T01:33:36.090Z,100218.50
2024-02-21T01:36:04.291Z,100212.41
2024-02-21T01:38:31.350Z,100211.50
2024-02-21T01:40:58.427Z,100215.88
2024-02-21T01:43:25.832Z,100219.47
2024-02-21T01:45:57.549Z,100210.66
2024-02-21T01:48:26.852Z,100207.16
2024-02-21T01:50:56.054Z,100205.44
2024-02-21T01:53:31.049Z,100203.69
2024-02-21T01:55:58.254Z,100198.31
2024-02-21T01:58:25.515Z,100191.25
2024-02-21T02:00:53.208Z,100189.44
2024-02-21T02:03:21.441Z,100181.59
2024-02-21T02:05:50.121Z,100192.94
2024-02-21T02:08:18.868Z,100180.75
2024-02-21T02:10:47.241Z,100187.75
2024-02-21T02:13:16.172Z,100189.53
2024-02-21T02:15:50.647Z,100186.13
2024-02-21T02:18:21.049Z,100185.19
2024-02-21T02:20:49.860Z,100186.13
2024-02-21T02:23:26.618Z,100176.63
2024-02-21T02:25:55.844Z,100168.75
2024-02-21T02:28:23.429Z,100167.00
2024-02-21T02:30:52.495Z,100157.28
2024-02-21T02:33:20.106Z,100163.38
2024-02-21T02:35:51.604Z,100154.56
2024-02-21T02:38:21.053Z,100154.50
2024-02-21T02:40:48.016Z,100152.09
2024-02-21T02:43:15.419Z,100148.56
2024-02-21T02:45:42.390Z,100147.75
2024-02-21T02:48:10.932Z,100137.13
2024-02-21T02:50:38.258Z,100158.16
2024-02-21T02:53:06.455Z,100157.28
2024-02-21T02:55:33.458Z,100144.06
2024-02-21T02:58:01.635Z,100152.88
2024-02-21T03:00:28.972Z,100151.94
2024-02-21T03:02:55.925Z,100146.66
2024-02-21T03:05:24.143Z,100144.06
2024-02-21T03:07:52.935Z,100137.94
2024-02-21T03:10:20.692Z,100143.97
2024-02-21T03:12:47.878Z,100138.53
2024-02-21T03:15:18.200Z,100132.44
2024-02-21T03:17:45.270Z,100129.81
2024-02-21T03:20:13.836Z,100130.78
2024-02-21T03:22:42.326Z,100141.34
2024-02-21T03:25:12.231Z,100135.16
2024-02-21T03:27:40.694Z,100134.31
2024-02-21T03:30:08.329Z,100136.94
2024-02-21T03:32:36.145Z,100133.28
2024-02-21T03:35:03.537Z,100123.66
2024-02-21T03:37:30.904Z,100128.94
2024-02-21T03:40:00.876Z,100131.56
2024-02-21T03:42:31.094Z,100129.00
2024-02-21T03:44:58.395Z,100134.31
2024-02-21T03:47:25.293Z,100122.88
2024-02-21T03:49:52.594Z,100125.34
2024-02-21T03:52:19.766Z,100138.53
2024-02-21T03:54:49.596Z,100128.13
2024-02-21T03:57:16.781Z,100126.25
2024-02-21T03:59:45.065Z,100122.75
2024-02-21T04:02:12.293Z,100117.66
2024-02-21T04:04:47.540Z,100128.28
2024-02-21T04:07:18.128Z,100120.31
2024-02-21T04:09:45.388Z,100124.69
2024-02-21T04:12:12.721Z,100108.88
2024-02-21T04:14:44.218Z,100115.75
2024-02-21T04:17:12.828Z,100112.41
2024-02-21T04:19:39.983Z,100109.59
2024-02-21T04:22:08.201Z,100112.25
2024-02-21T04:24:39.220Z,100107.00
2024-02-21T04:27:06.154Z,100108.75
2024-02-21T04:29:37.748Z,100105.31
2024-02-21T04:32:05.768Z,100107.16
2024-02-21T04:34:33.225Z,100105.34
2024-02-21T04:37:00.156Z,100097.50
2024-02-21T04:39:27.639Z,100098.34
2024-02-21T04:41:54.518Z,100105.41
2024-02-21T04:44:23.681Z,100103.66
2024-02-21T04:46:51.066Z,100103.66
2024-02-21T04:49:18.644Z,100094.13
2024-02-21T04:51:46.899Z,100088.88
2024-02-21T04:54:14.916Z,100088.03
2024-02-21T04:56:41.876Z,100081.84
2024-02-21T04:59:09.427Z,100082.84
2024-02-21T05:01:36.996Z,100079.44
2024-02-21T05:04:05.565Z,100071.47
2024-02-21T05:06:33.731Z,100074.16
2024-02-21T05:09:01.409Z,100075.84
2024-02-21T05:11:28.775Z,100066.25
2024-02-21T05:13:57.294Z,100071.56
2024-02-21T05:16:25.575Z,100073.16
2024-02-21T05:18:52.628Z,100079.41
2024-02-21T05:21:20.529Z,100068.00
2024-02-21T05:23:49.352Z,100070.53
2024-02-21T05:26:36.643Z,100064.44
2024-02-21T05:29:05.047Z,100065.38
2024-02-21T05:31:53.196Z,100060.06
2024-02-21T05:34:21.515Z,100068.84
2024-02-21T05:36:53.933Z,100067.13
2024-02-21T05:39:24.832Z,100061.91
2024-02-21T05:41:52.189Z,100061.06
2024-02-21T05:44:20.168Z,100067.16
2024-02-21T05:46:47.527Z,100065.41
2024-02-21T05:49:16.793Z,100058.34
2024-02-21T05:51:44.126Z,100054.00
2024-02-21T05:54:13.598Z,100054.88
2024-02-21T05:56:45.874Z,100053.97
2024-02-21T05:59:14.224Z,100055.72
2024-02-21T06:01:43.004Z,100058.34
2024-02-21T06:04:10.185Z,100064.63
2024-02-21T06:06:38.138Z,100066.94
2024-02-21T06:09:05.550Z,100050.44
2024-02-21T06:11:34.205Z,100053.97
2024-02-21T06:14:04.445Z,100059.19
2024-02-21T06:16:31.478Z,100062.75
2024-02-21T06:18:58.729Z,100062.63
2024-02-21T06:21:30.576Z,100059.97
2024-02-21T06:23:57.397Z,100060.00
2024-02-21T06:26:27.392Z,100065.25
2024-02-21T06:28:56.550Z,100062.69
2024-02-21T06:31:24.001Z,100059.22
2024-02-21T06:33:51.396Z,100055.69
2024-02-21T06:36:19.319Z,100054.88
2024-02-21T06:38:47.798Z,100046.94
2024-02-21T06:41:20.756Z,100051.25
2024-02-21T06:43:54.069Z,100053.03
2024-02-21T06:46:29.990Z,100051.25
2024-02-21T06:48:58.593Z,100052.88
2024-02-21T06:51:26.448Z,100047.59
2024-02-21T06:53:54.210Z,100049.25
2024-02-21T06:56:21.868Z,100049.94
2024-02-21T06:58:50.070Z,100050.81
2024-02-21T07:01:17.466Z,100054.25
2024-02-21T07:03:48.906Z,100047.00
2024-02-21T07:06:16.071Z,100051.31
2024-02-21T07:08:43.406Z,100051.16
2024-02-21T07:11:10.503Z,100050.16
2024-02-21T07:13:37.843Z,100049.38
2024-02-21T07:16:05.638Z,100049.00
2024-02-21T07:18:32.696Z,100041.84
2024-02-21T07:21:00.721Z,100041.75
2024-02-21T07:23:27.602Z,100036.41
2024-02-21T07:25:55.604Z,100024.91
2024-02-21T07:28:26.601Z,100033.47
2024-02-21T07:30:53.632Z,100027.50
2024-02-21T07:33:20.532Z,100030.22
2024-02-21T07:35:47.426Z,100038.66
2024-02-21T07:38:15.544Z,100030.84
2024-02-21T07:40:46.014Z,100030.84
2024-02-21T07:43:13.918Z,100026.41
2024-02-21T07:45:41.934Z,100022.63
2024-02-21T07:48:08.862Z,100027.88
2024-02-21T07:50:36.903Z,100026.00
2024-02-21T07:53:03.878Z,100019.94
2024-02-21T07:55:31.407Z,100016.31
2024-02-21T07:57:58.611Z,100006.59
2024-02-21T08:00:25.631Z,100017.00
2024-02-21T08:02:52.377Z,100008.09
2024-02-21T08:05:19.655Z,100007.28
2024-02-21T08:07:50.345Z,100005.41
2024-02-21T08:10:17.507Z,100005.16
2024-02-21T08:12:44.427Z,99999.78
2024-02-21T08:15:13.694Z,99999.50
2024-02-21T08:17:40.904Z,100002.75
2024-02-21T08:20:09.924Z,99998.19
2024-02-21T08:22:39.766Z,99996.22
2024-02-21T08:25:07.944Z,99989.06
2024-02-21T08:27:35.728Z,99984.75
2024-02-21T08:30:02.789Z,99982.78
2024-02-21T08:32:30.764Z,99977.38
2024-02-21T08:35:01.282Z,99983.28
2024-02-21T08:37:30.324Z,99980.44
2024-02-21T08:40:09.244Z,99982.09
2024-02-21T08:42:42.084Z,99982.88
2024-02-21T08:45:11.134Z,99977.47
2024-02-21T08:47:41.058Z,99980.78
2024-02-21T08:50:18.921Z,99976.16
2024-02-21T08:52:54.781Z,99971.63
2024-02-21T08:55:21.913Z,99977.09
2024-02-21T08:57:49.045Z,99982.34
2024-02-21T09:00:17.725Z,99986.63
2024-02-21T09:02:44.844Z,99966.44
2024-02-21T09:05:13.142Z,99962.53
2024-02-21T09:07:40.394Z,99963.06
2024-02-21T09:10:10.153Z,99971.97
2024-02-21T09:12:37.138Z,99979.53
2024-02-21T09:15:04.886Z,99964.50
2024-02-21T09:17:32.747Z,99964.56
2024-02-21T09:20:04.464Z,99972.50
2024-02-21T09:22:32.798Z,99979.41
2024-02-21T09:25:00.176Z,99976.16
2024-02-21T09:27:31.555Z,99982.34
2024-02-21T09:29:58.677Z,99978.06
2024-02-21T09:32:27.882Z,99982.22
2024-02-21T09:34:59.060Z,99985.06
2024-02-21T09:37:28.131Z,99983.34
2024-02-21T09:39:55.059Z,99984.06
2024-02-21T09:42:31.523Z,99988.31
2024-02-21T09:44:58.655Z,99989.75
2024-02-21T09:47:40.650Z,99990.72
2024-02-21T09:50:09.786Z,99986.09
2024-02-21T09:52:39.561Z,99991.56
2024-02-21T09:55:09.539Z,99985.50
2024-02-21T09:57:38.733Z,99977.88
2024-02-21T10:00:09.302Z,99983.41
2024-02-21T10:02:36.490Z,99985.06
2024-02-21T10:05:06.248Z,99976.41
2024-02-21T10:07:33.847Z,99979.72
2024-02-21T10:10:07.282Z,99974.50
2024-02-21T10:12:34.584Z,99967.84
2024-02-21T10:15:06.618Z,99975.31
2024-02-21T10:17:37.710Z,99971.44
2024-02-21T10:20:11.963Z,99970.63
2024-02-21T10:22:43.903Z,99971.56
2024-02-21T10:25:12.471Z,99966.28
2024-02-21T10:27:40.533Z,99967.94
2024-02-21T10:30:14.638Z,99961.72
2024-02-21T10:32:56.061Z,99959.03
2024-02-21T10:35:34.612Z,99953.81
2024-02-21T10:38:02.951Z,99950.31
2024-02-21T10:40:32.340Z,99946.19
2024-02-21T10:43:03.204Z,99941.72
2024-02-21T10:45:36.254Z,99939.94
2024-02-21T10:48:14.294Z,99938.16
2024-02-21T10:51:04.943Z,99939.66
2024-02-21T10:53:51.761Z,99944.06
2024-02-21T10:56:30.030Z,99947.56
2024-02-21T10:59:01.942Z,99946.91
2024-02-21T11:01:32.972Z,99935.53
2024-02-21T11:04:08.785Z,99928.47
2024-02-21T11:06:38.608Z,99915.94
2024-02-21T11:09:07.051Z,99912.44
2024-02-21T11:11:41.925Z,99904.53
2024-02-21T11:14:10.501Z,99907.75
2024-02-21T11:16:42.162Z,99912.06
2024-02-21T11:19:24.034Z,99897.38
2024-02-21T11:21:52.372Z,99907.13
2024-02-21T11:24:38.925Z,99898.59
2024-02-21T11:27:10.788Z,99901.25
2024-02-21T11:29:56.477Z,99895.72
2024-02-21T11:32:23.733Z,99889.81
2024-02-21T11:35:08.776Z,99896.06
2024-02-21T11:37:41.460Z,99877.06
2024-02-21T11:40:12.519Z,99873.69
2024-02-21T11:42:41.784Z,99872.00
2024-02-21T11:45:10.630Z,99881.69
2024-02-21T11:47:42.177Z,99878.50
2024-02-21T11:50:13.173Z,99874.97
2024-02-21T11:52:42.632Z,99863.88
2024-02-21T11:55:10.498Z,99866.50
2024-02-21T11:57:45.369Z,99866.44
2024-02-21T12:00:18.176Z,99867.22
2024-02-21T12:02:46.915Z,99852.84
2024-02-21T12:05:16.020Z,99849.03
2024-02-21T12:07:45.401Z,99847.47
2024-02-21T12:10:13.458Z,99850.41
2024-02-21T12:12:41.230Z,99847.22
2024-02-21T12:15:09.207Z,99837.44
2024-02-21T12:17:41.499Z,99837.31
2024-02-21T12:20:11.027Z,99833.59
2024-02-21T12:22:39.698Z,99831.72
2024-02-21T12:25:28.513Z,99817.88
2024-02-21T12:27:55.479Z,99815.94
2024-02-21T12:30:22.571Z,99819.13
2024-02-21T12:32:51.019Z,99812.31
2024-02-21T12:35:19.370Z,99808.81
2024-02-21T12:37:46.855Z,99804.38
2024-02-21T12:40:15.034Z,99798.03
2024-02-21T12:42:46.760Z,99798.72
2024-02-21T12:45:14.130Z,99797.59
2024-02-21T12:47:48.015Z,99807.19
2024-02-21T12:50:16.514Z,99796.16
2024-02-21T12:52:43.943Z,99794.13
2024-02-21T12:55:12.288Z,99790.78
2024-02-21T12:57:39.256Z,99791.28
2024-02-21T13:00:09.939Z,99789.56
2024-02-21T13:02:36.992Z,99784.19
2024-02-21T13:05:06.813Z,99783.81
2024-02-21T13:07:34.660Z,99781.59
2024-02-21T13:10:01.589Z,99786.09
2024-02-21T13:12:31.383Z,99774.50
2024-02-21T13:14:58.609Z,99774.44
2024-02-21T13:17:34.629Z,99768.06
2024-02-21T13:20:01.867Z,99757.56
2024-02-21T13:22:29.300Z,99760.09
2024-02-21T13:25:00.711Z,99755.13
2024-02-21T13:27:27.653Z,99754.19
2024-02-21T13:29:54.645Z,99739.47
2024-02-21T13:32:21.538Z,99738.03
2024-02-21T13:34:48.637Z,99726.16
2024-02-21T13:37:16.247Z,99712.69
2024-02-21T13:39:43.489Z,99722.28
2024-02-21T13:42:10.590Z,99721.44
2024-02-21T13:44:38.681Z,99705.19
2024-02-21T13:47:06.068Z,99701.97
2024-02-21T13:49:36.860Z,99692.66
2024-02-21T13:52:04.576Z,99685.63
2024-02-21T13:54:31.737Z,99686.34
2024-02-21T13:56:59.987Z,99691.63
2024-02-21T13:59:27.995Z,99689.44
2024-02-21T14:01:58.291Z,99679.91
2024-02-21T14:04:26.352Z,99672.41
2024-02-21T14:06:56.710Z,99677.03
2024-02-21T14:09:23.699Z,99678.16
2024-02-21T14:11:53.738Z,99674.19
2024-02-21T14:14:20.716Z,99668.50
2024-02-21T14:16:49.397Z,99688.53
2024-02-21T14:19:18.748Z,99681.19
2024-02-21T14:21:46.746Z,99688.69
2024-02-21T14:24:15.815Z,99680.28
2024-02-21T14:26:42.759Z,99676.63
2024-02-21T14:29:10.261Z,99677.94
2024-02-21T14:31:37.773Z,99680.63
2024-02-21T14:34:06.301Z,99669.31
2024-02-21T14:36:34.347Z,99664.41
2024-02-21T14:39:01.559Z,99657.25
2024-02-21T14:41:29.750Z,99647.09
2024-02-21T14:44:03.966Z,99650.28
2024-02-21T14:46:32.572Z,99630.22
2024-02-21T14:48:59.710Z,99629.44
2024-02-21T14:51:27.002Z,99631.69
2024-02-21T14:53:54.037Z,99627.91
2024-02-21T14:56:22.043Z,99632.88
2024-02-21T14:58:50.823Z,99629.94
2024-02-21T15:01:21.062Z,99633.31
2024-02-21T15:03:49.090Z,99629.13
2024-02-21T15:06:17.020Z,99636.63
2024-02-21T15:08:47.513Z,99629.69
2024-02-21T15:11:17.819Z,99634.91
2024-02-21T15:13:45.052Z,99640.44
2024-02-21T15:16:11.985Z,99639.06
2024-02-21T15:18:40.970Z,99635.88
2024-02-21T15:21:11.842Z,99634.31
2024-02-21T15:23:38.940Z,99636.84
2024-02-21T15:26:06.946Z,99625.31
2024-02-21T15:28:34.435Z,99630.03
2024-02-21T15:31:01.720Z,99629.34
2024-02-21T15:33:28.836Z,99626.09
2024-02-21T15:35:56.068Z,99621.28
2024-02-21T15:38:23.104Z,99612.81
2024-02-21T15:40:51.160Z,99621.53
2024-02-21T15:43:18.680Z,99617.31
2024-02-21T15:45:46.058Z,99611.44
2024-02-21T15:48:14.893Z,99609.06
2024-02-21T15:50:41.968Z,99612.56
2024-02-21T15:53:09.190Z,99615.22
2024-02-21T15:55:36.474Z,99623.06
2024-02-21T15:58:05.488Z,99623.88
2024-02-21T16:00:34.450Z,99617.03
2024-02-21T16:03:02.069Z,99617.16
2024-02-21T16:05:29.338Z,99608.81
2024-02-21T16:07:57.836Z,99608.19
2024-02-21T16:10:25.893Z,99601.47
2024-02-21T16:12:54.102Z,99598.75
2024-02-21T16:15:21.063Z,99601.34
2024-02-21T16:17:49.179Z,99596.50
2024-02-21T16:20:16.900Z,99596.06
2024-02-21T16:22:46.370Z,99601.16
2024-02-21T16:25:14.166Z,99595.41
2024-02-21T16:27:42.639Z,99597.84
2024-02-21T16:30:12.278Z,99595.88
2024-02-21T16:32:44.266Z,99600.44
2024-02-21T16:35:13.436Z,99594.75
2024-02-21T16:37:40.574Z,99595.84
2024-02-21T16:40:08.493Z,99601.03
2024-02-21T16:42:35.476Z,99588.44
2024-02-21T16:45:05.585Z,99594.03
2024-02-21T16:47:33.682Z,99599.06
2024-02-21T16:50:01.876Z,99604.09
2024-02-21T16:52:29.156Z,99595.31
2024-02-21T16:54:57.732Z,99601.22
2024-02-21T16:57:25.057Z,99593.53
2024-02-21T16:59:55.393Z,99586.63
2024-02-21T17:02:22.966Z,99581.84
2024-02-21T17:04:51.211Z,99582.06
2024-02-21T17:07:19.035Z,99590.59
2024-02-21T17:09:47.113Z,99584.41
2024-02-21T17:12:14.089Z,99590.69
2024-02-21T17:14:41.174Z,99588.81
2024-02-21T17:17:08.636Z,99590.88
2024-02-21T17:19:38.625Z,99579.91
2024-02-21T17:22:10.050Z,99577.63
2024-02-21T17:24:36.918Z,99568.63
2024-02-21T17:27:05.095Z,99568.38
2024-02-21T17:29:32.789Z,99568.03
2024-02-21T17:32:00.984Z,99569.44
2024-02-21T17:34:30.301Z,99565.13
2024-02-21T17:36:57.738Z,99565.31
2024-02-21T17:39:30.105Z,99569.44
2024-02-21T17:41:58.953Z,99558.03
2024-02-21T17:44:26.293Z,99547.44
2024-02-21T17:46:53.593Z,99545.22
2024-02-21T17:49:22.071Z,99539.47
2024-02-21T17:51:49.117Z,99539.75
2024-02-21T17:54:17.438Z,99546.81
2024-02-21T17:56:44.599Z,99532.94
2024-02-21T17:59:13.765Z,99524.47
2024-02-21T18:01:41.181Z,99516.50
2024-02-21T18:04:08.721Z,99510.63
2024-02-21T18:06:35.929Z,99511.41
2024-02-21T18:09:02.983Z,99509.81
2024-02-21T18:11:31.791Z,99497.16
2024-02-21T18:13:59.076Z,99502.28
2024-02-21T18:16:27.351Z,99496.06
2024-02-21T18:18:54.247Z,99498.22
2024-02-21T18:21:21.078Z,99485.00
2024-02-21T18:23:50.182Z,99487.56
2024-02-21T18:26:17.834Z,99481.69
2024-02-21T18:28:45.799Z,99475.44
2024-02-21T18:31:14.952Z,99473.94
2024-02-21T18:33:46.063Z,99471.38
2024-02-21T18:36:13.476Z,99474.41
2024-02-21T18:38:42.519Z,99460.94
2024-02-21T18:41:11.147Z,99460.78
2024-02-21T18:43:38.273Z,99459.16
2024-02-21T18:46:07.484Z,99464.94
2024-02-21T18:48:34.319Z,99458.25
2024-02-21T18:51:02.509Z,99445.66
2024-02-21T18:53:32.105Z,99449.00
2024-02-21T18:55:59.533Z,99450.63
2024-02-21T18:58:26.780Z,99450.56
2024-02-21T19:00:54.831Z,99447.31
2024-02-21T19:03:21.719Z,99438.53
2024-02-21T19:05:50.119Z,99441.66
2024-02-21T19:08:17.765Z,99439.78
2024-02-21T19:10:45.982Z,99436.19
2024-02-21T19:13:13.271Z,99443.88
2024-02-21T19:15:42.673Z,99428.00
2024-02-21T19:18:10.434Z,99429.84
2024-02-21T19:20:37.573Z,99430.56
2024-02-21T19:23:05.175Z,99433.19
2024-02-21T19:25:33.598Z,99430.56
2024-02-21T19:28:00.921Z,99426.97
2024-02-21T19:30:29.240Z,99424.41
2024-02-21T19:32:57.335Z,99421.72
2024-02-21T19:35:24.411Z,99415.56
2024-02-21T19:37:52.265Z,99417.25
2024-02-21T19:40:20.328Z,99422.59
2024-02-21T19:42:47.717Z,99414.72
2024-02-21T19:45:16.019Z,99407.75
2024-02-21T19:47:45.444Z,99413.84
2024-02-21T19:50:19.573Z,99414.81
2024-02-21T19:52:47.069Z,99404.22
2024-02-21T19:55:18.528Z,99403.41
2024-02-21T19:57:47.407Z,99406.94
2024-02-21T20:00:15.217Z,99396.44
2024-02-21T20:02:43.806Z,99393.97
2024-02-21T20:05:11.365Z,99391.34
2024-02-21T20:07:38.773Z,99384.31
2024-02-21T20:10:08.456Z,99384.31
2024-02-21T20:12:38.827Z,99386.03
2024-02-21T20:15:07.048Z,99384.38
2024-02-21T20:17:35.030Z,99380.78
2024-02-21T20:20:04.244Z,99374.78
2024-02-21T20:22:35.516Z,99369.50
2024-02-21T20:25:05.305Z,99365.94
2024-02-21T20:27:32.197Z,99371.09
2024-02-21T20:30:07.141Z,99361.47
2024-02-21T20:32:35.647Z,99372.84
2024-02-21T20:35:03.140Z,99364.13
2024-02-21T20:37:31.661Z,99363.16
2024-02-21T20:40:00.245Z,99371.06
2024-02-21T20:42:27.338Z,99354.47
2024-02-21T20:44:55.246Z,99352.66
2024-02-21T20:47:54.465Z,99338.59
2024-02-21T20:50:23.364Z,99337.63
2024-02-21T20:52:52.749Z,99325.31
2024-02-21T20:55:25.731Z,99327.91
2024-02-21T20:57:53.428Z,99323.47
2024-02-21T21:00:24.255Z,99317.28
2024-02-21T21:02:51.124Z,99311.81
2024-02-21T21:05:21.699Z,99306.44
2024-02-21T21:07:48.972Z,99312.41
2024-02-21T21:10:17.164Z,99295.63
2024-02-21T21:12:45.239Z,99286.00
2024-02-21T21:15:13.320Z,99279.84
2024-02-21T21:17:40.275Z,99285.81
2024-02-21T21:20:13.457Z,99289.28
2024-02-21T21:22:41.315Z,99276.28
2024-02-21T21:25:10.853Z,99277.06
2024-02-21T21:27:37.715Z,99260.47
2024-02-21T21:30:07.882Z,99270.00
2024-02-21T21:32:36.496Z,99256.72
2024-02-21T21:35:06.696Z,99249.66
2024-02-21T21:37:34.630Z,99244.34
2024-02-21T21:40:01.885Z,99244.34
2024-02-21T21:42:29.796Z,99234.44
2024-02-21T21:44:56.770Z,99225.34
2024-02-21T21:47:25.711Z,99206.88
2024-02-21T21:49:52.717Z,99208.81
2024-02-21T21:52:21.666Z,99213.16
2024-02-21T21:54:51.376Z,99219.41
2024-02-21T21:57:20.152Z,99202.53
2024-02-21T21:59:48.160Z,99198.84
2024-02-21T22:02:15.053Z,99202.25
2024-02-21T22:04:42.282Z,99189.00
2024-02-21T22:07:13.484Z,99199.44
2024-02-21T22:09:47.447Z,99190.16
2024-02-21T22:12:15.033Z,99195.47
2024-02-21T22:14:42.296Z,99192.66
2024-02-21T22:17:10.529Z,99194.56
2024-02-21T22:19:37.854Z,99196.19
2024-02-21T22:22:05.278Z,99192.06
2024-02-21T22:24:33.002Z,99195.47
2024-02-21T22:27:02.862Z,99190.50
2024-02-21T22:29:31.761Z,99185.97
2024-02-21T22:32:00.598Z,99181.53
2024-02-21T22:34:28.689Z,99182.38
2024-02-21T22:36:56.039Z,99174.75
2024-02-21T22:39:25.580Z,99177.53
2024-02-21T22:41:54.716Z,99173.38
2024-02-21T22:44:22.045Z,99171.66
2024-02-21T22:46:52.376Z,99169.78
2024-02-21T22:49:22.643Z,99160.31
2024-02-21T22:51:50.005Z,99168.41
2024-02-21T22:54:17.961Z,99168.75
2024-02-21T22:56:49.969Z,99158.34
2024-02-21T22:59:16.992Z,99151.91
2024-02-21T23:01:44.096Z,99148.63
2024-02-21T23:04:12.111Z,99136.41
2024-02-21T23:06:39.296Z,99134.88
2024-02-21T23:09:06.294Z,99139.06
2024-02-21T23:11:33.549Z,99115.44
2024-02-21T23:14:00.732Z,99125.41
2024-02-21T23:16:28.736Z,99112.44
2024-02-21T23:18:58.742Z,99109.91
2024-02-21T23:21:25.713Z,99103.84
2024-02-21T23:23:54.615Z,99097.84
2024-02-21T23:26:32.251Z,99102.22
2024-02-21T23:28:59.806Z,99099.59
2024-02-21T23:31:27.918Z,99097.75
2024-02-21T23:33:56.339Z,99102.16
2024-02-21T23:36:23.716Z,99093.53
2024-02-21T23:38:51.807Z,99089.81
2024-02-21T23:41:18.819Z,99093.97
2024-02-21T23:43:47.216Z,99090.13
2024-02-21T23:46:14.571Z,99083.47
2024-02-21T23:48:42.532Z,99086.09
2024-02-21T23:51:10.732Z,99080.84
2024-02-21T23:53:38.041Z,99070.13
2024-02-21T23:56:12.336Z,99075.50
2024-02-21T23:58:41.728Z,99078.00
